地図

経路データ

SID SEASON NUMBER BASIN SUBBASIN NAME ISO_TIME NATURE LAT LON WMO_WIND WMO_PRES WMO_AGENCY TRACK_TYPE DIST2LAND LANDFALL IFLAG USA_AGENCY USA_ATCF_ID USA_LAT USA_LON USA_RECORD USA_STATUS USA_WIND USA_PRES USA_SSHS USA_R34_NE USA_R34_SE USA_R34_SW USA_R34_NW USA_R50_NE USA_R50_SE USA_R50_SW USA_R50_NW USA_R64_NE USA_R64_SE USA_R64_SW USA_R64_NW USA_POCI USA_ROCI USA_RMW USA_EYE TOKYO_LAT TOKYO_LON TOKYO_GRADE TOKYO_WIND TOKYO_PRES TOKYO_R50_DIR TOKYO_R50_LONG TOKYO_R50_SHORT TOKYO_R30_DIR TOKYO_R30_LONG TOKYO_R30_SHORT TOKYO_LAND CMA_LAT CMA_LON CMA_CAT CMA_WIND CMA_PRES HKO_LAT HKO_LON HKO_CAT HKO_WIND HKO_PRES NEWDELHI_LAT NEWDELHI_LON NEWDELHI_GRADE NEWDELHI_WIND NEWDELHI_PRES NEWDELHI_CI NEWDELHI_DP NEWDELHI_POCI REUNION_LAT REUNION_LON REUNION_TYPE REUNION_WIND REUNION_PRES REUNION_TNUM REUNION_CI REUNION_RMW REUNION_R34_NE REUNION_R34_SE REUNION_R34_SW REUNION_R34_NW REUNION_R50_NE REUNION_R50_SE REUNION_R50_SW REUNION_R50_NW REUNION_R64_NE REUNION_R64_SE REUNION_R64_SW REUNION_R64_NW BOM_LAT BOM_LON BOM_TYPE BOM_WIND BOM_PRES BOM_TNUM BOM_CI BOM_RMW BOM_R34_NE BOM_R34_SE BOM_R34_SW BOM_R34_NW BOM_R50_NE BOM_R50_SE BOM_R50_SW BOM_R50_NW BOM_R64_NE BOM_R64_SE BOM_R64_SW BOM_R64_NW BOM_ROCI BOM_POCI BOM_EYE BOM_POS_METHOD BOM_PRES_METHOD NADI_LAT NADI_LON NADI_CAT NADI_WIND NADI_PRES WELLINGTON_LAT WELLINGTON_LON WELLINGTON_WIND WELLINGTON_PRES DS824_LAT DS824_LON DS824_STAGE DS824_WIND DS824_PRES TD9636_LAT TD9636_LON TD9636_STAGE TD9636_WIND TD9636_PRES TD9635_LAT TD9635_LON TD9635_WIND TD9635_PRES TD9635_ROCI NEUMANN_LAT NEUMANN_LON NEUMANN_CLASS NEUMANN_WIND NEUMANN_PRES MLC_LAT MLC_LON MLC_CLASS MLC_WIND MLC_PRES USA_GUST BOM_GUST BOM_GUST_PER REUNION_GUST REUNION_GUST_PER USA_SEAHGT USA_SEARAD_NE USA_SEARAD_SE USA_SEARAD_SW USA_SEARAD_NW STORM_SPEED STORM_DIR
1989221N16339 1989 76 NA NA NOT_NAMED 1989-08-08 18:00:00 TS 15.8000 -20.8000 25 hurdat_atl main 374 334 O_____________ hurdat_atl AL061989 15.8000 -20.8000 TD 25 -1 9 88
1989221N16339 1989 76 NA NA NOT_NAMED 1989-08-08 21:00:00 TS 15.8127 -20.3426 main 324 285 P_____________ AL061989 15.8127 -20.3426 TD 25 -1 9 90
1989221N16339 1989 76 NA NA NOT_NAMED 1989-08-09 00:00:00 TS 15.8000 -19.9000 25 hurdat_atl main 285 247 O_____________ hurdat_atl AL061989 15.8000 -19.9000 TD 25 -1 8 94
1989221N16339 1989 76 NA NA NOT_NAMED 1989-08-09 03:00:00 TS 15.7499 -19.4849 main 242 205 P_____________ AL061989 15.7499 -19.4849 TD 25 -1 8 97
1989221N16339 1989 76 NA NA NOT_NAMED 1989-08-09 06:00:00 TS 15.7000 -19.1000 25 hurdat_atl main 205 178 O_____________ hurdat_atl AL061989 15.7000 -19.1000 TD 25 -1 7 95
1989221N16339 1989 76 NA NA NOT_NAMED 1989-08-09 09:00:00 TS 15.6924 -18.7350 main 170 147 P_____________ AL061989 15.6924 -18.7350 TD 25 -1 7 90
1989221N16339 1989 76 NA NA NOT_NAMED 1989-08-09 12:00:00 TS 15.7000 -18.4000 25 hurdat_atl main 147 129 O_____________ hurdat_atl AL061989 15.7000 -18.4000 TD 25 -1 6 89
1989221N16339 1989 76 NA NA NOT_NAMED 1989-08-09 15:00:00 TS 15.7075 -18.0775 main 129 111 P_____________ AL061989 15.7075 -18.0775 TD 25 -1 6 90
1989221N16339 1989 76 NA NA NOT_NAMED 1989-08-09 18:00:00 TS 15.7000 -17.8000 25 hurdat_atl main 111 93 O_____________ hurdat_atl AL061989 15.7000 -17.8000 TD 25 -1 5 97
1989221N16339 1989 76 NA NA NOT_NAMED 1989-08-09 21:00:00 TS 15.6500 -17.5775 main 87 69 P_____________ AL061989 15.6500 -17.5775 TD 25 -1 4 105
1989221N16339 1989 76 NA NA NOT_NAMED 1989-08-10 00:00:00 TS 15.6000 -17.4000 25 hurdat_atl main 69 54 O_____________ hurdat_atl AL061989 15.6000 -17.4000 TD 25 -1 3 100
1989221N16339 1989 76 NA NA NOT_NAMED 1989-08-10 03:00:00 TS 15.5925 -17.2350 main 54 44 P_____________ AL061989 15.5925 -17.2350 TD 25 -1 3 90
1989221N16339 1989 76 NA NA NOT_NAMED 1989-08-10 06:00:00 TS 15.6000 -17.1000 25 hurdat_atl main 44 34 O_____________ hurdat_atl AL061989 15.6000 -17.1000 TD 25 -1 2 88
1989221N16339 1989 76 NA NA NOT_NAMED 1989-08-10 09:00:00 TS 15.6000 -16.9850 main 34 24 P_____________ AL061989 15.6000 -16.9850 TD 25 -1 2 90
1989221N16339 1989 76 NA NA NOT_NAMED 1989-08-10 12:00:00 TS 15.6000 -16.9000 25 hurdat_atl main 24 15 O_____________ hurdat_atl AL061989 15.6000 -16.9000 TD 25 -1 2 90
1989221N16339 1989 76 NA NA NOT_NAMED 1989-08-10 15:00:00 TS 15.6000 -16.8275 main 15 15 P_____________ AL061989 15.6000 -16.8275 TD 25 -1 1 90
1989221N16339 1989 76 NA NA NOT_NAMED 1989-08-10 18:00:00 TS 15.6000 -16.8000 25 hurdat_atl main 15 15 O_____________ hurdat_atl AL061989 15.6000 -16.8000 TD 25 -1 0 0
1989221N16339 1989 76 NA NA NOT_NAMED 1989-08-10 21:00:00 TS 15.6000 -16.8275 main 15 15 P_____________ AL061989 15.6000 -16.8275 TD 25 -1 1 270
1989221N16339 1989 76 NA NA NOT_NAMED 1989-08-11 00:00:00 TS 15.6000 -16.9000 25 hurdat_atl main 24 24 O_____________ hurdat_atl AL061989 15.6000 -16.9000 TD 25 -1 2 270
1989221N16339 1989 76 NA NA NOT_NAMED 1989-08-11 03:00:00 TS 15.6000 -16.9850 main 34 34 P_____________ AL061989 15.6000 -16.9850 TD 25 -1 2 270
1989221N16339 1989 76 NA NA NOT_NAMED 1989-08-11 06:00:00 TS 15.6000 -17.1000 25 hurdat_atl main 44 44 O_____________ hurdat_atl AL061989 15.6000 -17.1000 TD 25 -1 2 268
1989221N16339 1989 76 NA NA NOT_NAMED 1989-08-11 09:00:00 TS 15.5925 -17.2275 main 54 54 P_____________ AL061989 15.5925 -17.2275 TD 25 -1 3 270
1989221N16339 1989 76 NA NA NOT_NAMED 1989-08-11 12:00:00 TS 15.6000 -17.4000 25 hurdat_atl main 69 69 O_____________ hurdat_atl AL061989 15.6000 -17.4000 TD 25 -1 4 278
1989221N16339 1989 76 NA NA NOT_NAMED 1989-08-11 15:00:00 TS 15.6500 -17.6275 main 87 87 P_____________ AL061989 15.6500 -17.6275 TD 25 -1 5 282
1989221N16339 1989 76 NA NA NOT_NAMED 1989-08-11 18:00:00 TS 15.7000 -17.9000 25 hurdat_atl main 119 119 O_____________ hurdat_atl AL061989 15.7000 -17.9000 TD 25 -1 5 275
1989221N16339 1989 76 NA NA NOT_NAMED 1989-08-11 21:00:00 TS 15.7000 -18.1851 main 134 134 P_____________ AL061989 15.7000 -18.1851 TD 25 -1 6 270
1989221N16339 1989 76 NA NA NOT_NAMED 1989-08-12 00:00:00 TS 15.7000 -18.5000 25 hurdat_atl main 155 155 O_____________ hurdat_atl AL061989 15.7000 -18.5000 TD 25 -1 6 275
1989221N16339 1989 76 NA NA NOT_NAMED 1989-08-12 03:00:00 TS 15.7499 -18.8274 main 178 178 P_____________ AL061989 15.7499 -18.8274 TD 25 -1 7 278
1989221N16339 1989 76 NA NA NOT_NAMED 1989-08-12 06:00:00 TS 15.8000 -19.2000 25 hurdat_atl main 220 220 O_____________ hurdat_atl AL061989 15.8000 -19.2000 TD 25 -1 8 274
1989221N16339 1989 76 NA NA NOT_NAMED 1989-08-12 09:00:00 TS 15.7999 -19.6276 main 256 256 P_____________ AL061989 15.7999 -19.6276 TD 25 -1 9 270
1989221N16339 1989 76 NA NA NOT_NAMED 1989-08-12 12:00:00 TS 15.8000 -20.1000 25 hurdat_atl main 304 304 O_____________ hurdat_atl AL061989 15.8000 -20.1000 TD 25 -1 9 272
1989221N16339 1989 76 NA NA NOT_NAMED 1989-08-12 15:00:00 TS 15.8345 -20.5401 main 344 344 P_____________ AL061989 15.8345 -20.5401 TD 25 -1 10 276
1989221N16339 1989 76 NA NA NOT_NAMED 1989-08-12 18:00:00 TS 15.9000 -21.1000 25 hurdat_atl main 408 408 O_____________ hurdat_atl AL061989 15.9000 -21.1000 TD 25 -1 13 277
1989221N16339 1989 76 NA NA NOT_NAMED 1989-08-12 21:00:00 TS 15.9844 -21.8378 main 483 483 P_____________ AL061989 15.9844 -21.8378 TD 25 -1 16 277
1989221N16339 1989 76 NA NA NOT_NAMED 1989-08-13 00:00:00 TS 16.1000 -22.8000 25 hurdat_atl main 589 589 O_____________ hurdat_atl AL061989 16.1000 -22.8000 TD 25 -1 20 277
1989221N16339 1989 76 NA NA NOT_NAMED 1989-08-13 03:00:00 TS 16.2492 -23.9376 main 706 706 P_____________ AL061989 16.2492 -23.9376 TD 25 -1 24 277
1989221N16339 1989 76 NA NA NOT_NAMED 1989-08-13 06:00:00 TS 16.4000 -25.3000 25 hurdat_atl main 857 857 O_____________ hurdat_atl AL061989 16.4000 -25.3000 TD 25 -1 28 276
1989221N16339 1989 76 NA NA NOT_NAMED 1989-08-13 09:00:00 TS 16.5304 -26.8698 main 1026 1026 P_____________ AL061989 16.5304 -26.8698 TD 25 -1 31 274
1989221N16339 1989 76 NA NA NOT_NAMED 1989-08-13 12:00:00 TS 16.6000 -28.5000 25 hurdat_atl main 1197 1197 O_____________ hurdat_atl AL061989 16.6000 -28.5000 TD 25 -1 30 271
1989221N16339 1989 76 NA NA NOT_NAMED 1989-08-13 15:00:00 TS 16.5870 -30.0250 main 1355 1355 P_____________ AL061989 16.5870 -30.0250 TD 25 -1 28 268
1989221N16339 1989 76 NA NA NOT_NAMED 1989-08-13 18:00:00 TS 16.5000 -31.4000 25 hurdat_atl main 1502 1502 O_____________ hurdat_atl AL061989 16.5000 -31.4000 TD 25 -1 25 265
1989221N16339 1989 76 NA NA NOT_NAMED 1989-08-13 21:00:00 TS 16.3790 -32.5897 main 1628 1628 P_____________ AL061989 16.3790 -32.5897 TD 25 -1 21 262
1989221N16339 1989 76 NA NA NOT_NAMED 1989-08-14 00:00:00 TS 16.2000 -33.6000 25 hurdat_atl main 1733 1733 O_____________ hurdat_atl AL061989 16.2000 -33.6000 TD 25 -1 19 258
1989221N16339 1989 76 NA NA NOT_NAMED 1989-08-14 03:00:00 TS 15.9796 -34.5248 main 1828 1828 P_____________ AL061989 15.9796 -34.5248 TD 25 -1 17 253
1989221N16339 1989 76 NA NA NOT_NAMED 1989-08-14 06:00:00 TS 15.7000 -35.3000 25 hurdat_atl main 1913 1913 O_____________ hurdat_atl AL061989 15.7000 -35.3000 TD 25 -1 15 245
1989221N16339 1989 76 NA NA NOT_NAMED 1989-08-14 09:00:00 TS 15.3570 -35.9373 main 1977 1977 P_____________ AL061989 15.3570 -35.9373 TD 25 -1 14 239
1989221N16339 1989 76 NA NA NOT_NAMED 1989-08-14 12:00:00 TS 15.0000 -36.5000 25 hurdat_atl main 2015 1952 O_____________ hurdat_atl AL061989 15.0000 -36.5000 TD 25 -1 13 237
1989221N16339 1989 76 NA NA NOT_NAMED 1989-08-14 15:00:00 TS 14.6471 -37.0701 main 1937 1871 P_____________ AL061989 14.6471 -37.0701 TD 25 -1 13 243
1989221N16339 1989 76 NA NA NOT_NAMED 1989-08-14 18:00:00 TS 14.4000 -37.7000 25 hurdat_atl main 1871 1804 O_____________ hurdat_atl AL061989 14.4000 -37.7000 TD 25 -1 14 256
1989221N16339 1989 76 NA NA NOT_NAMED 1989-08-14 21:00:00 TS 14.3099 -38.4552 main 1795 1735 P_____________ AL061989 14.3099 -38.4552 TD 25 -1 16 270
1989221N16339 1989 76 NA NA NOT_NAMED 1989-08-15 00:00:00 TS 14.4000 -39.3000 25 hurdat_atl main 1735 1684 O_____________ hurdat_atl AL061989 14.4000 -39.3000 TD 25 -1 17 282
1989221N16339 1989 76 NA NA NOT_NAMED 1989-08-15 03:00:00 TS 14.6700 -40.1995 main 1684 1637 P_____________ AL061989 14.6700 -40.1995 TD 25 -1 18 289
1989221N16339 1989 76 NA NA NOT_NAMED 1989-08-15 06:00:00 TS 15.0000 -41.1000 25 hurdat_atl main 1638 1596 O_____________ hurdat_atl AL061989 15.0000 -41.1000 TD 25 -1 18 288
1989221N16339 1989 76 NA NA NOT_NAMED 1989-08-15 09:00:00 TS 15.2298 -41.9376 main 1596 1559 P_____________ AL061989 15.2298 -41.9376 TD 25 -1 16 285
1989221N16339 1989 76 NA NA NOT_NAMED 1989-08-15 12:00:00 TS 15.4000 -42.7000 25 hurdat_atl main 1559 1529 O_____________ hurdat_atl AL061989 15.4000 -42.7000 TD 25 -1 14 282
1989221N16339 1989 76 NA NA NOT_NAMED 1989-08-15 15:00:00 TS 15.5145 -43.3653 main 1523 1496 P_____________ AL061989 15.5145 -43.3653 TD 25 -1 13 279
1989221N16339 1989 76 NA NA NOT_NAMED 1989-08-15 18:00:00 TS 15.6000 -44.0000 25 hurdat_atl main 1496 1465 O_____________ hurdat_atl AL061989 15.6000 -44.0000 TD 25 -1 13 278
1989221N16339 1989 76 NA NA NOT_NAMED 1989-08-15 21:00:00 TS 15.6995 -44.6626 main 1458 1424 P_____________ AL061989 15.6995 -44.6626 TD 25 -1 14 278
1989221N16339 1989 76 NA NA NOT_NAMED 1989-08-16 00:00:00 TS 15.8000 -45.4000 25 hurdat_atl main 1424 1387 O_____________ hurdat_atl AL061989 15.8000 -45.4000 TD 25 -1 15 278
1989221N16339 1989 76 NA NA NOT_NAMED 1989-08-16 03:00:00 TS 15.9073 -46.2550 main 1381 1350 P_____________ AL061989 15.9073 -46.2550 TD 25 -1 17 277
1989221N16339 1989 76 NA NA NOT_NAMED 1989-08-16 06:00:00 TS 16.0000 -47.2000 25 hurdat_atl main 1345 1303 O_____________ hurdat_atl AL061989 16.0000 -47.2000 TD 25 -1 19 274
1989221N16339 1989 76 NA NA NOT_NAMED 1989-08-16 09:00:00 TS 16.0348 -48.1930 main 1299 1270 P_____________ AL061989 16.0348 -48.1930 TD 27 -1 19 273
1989221N16339 1989 76 NA NA NOT_NAMED 1989-08-16 12:00:00 TS 16.1000 -49.2000 30 hurdat_atl main 1265 1237 O_____________ hurdat_atl AL061989 16.1000 -49.2000 TD 30 -1 19 277
1989221N16339 1989 76 NA NA NOT_NAMED 1989-08-16 15:00:00 TS 16.2624 -50.1949 main 1243 1229 P_____________ AL061989 16.2624 -50.1949 TD 30 -1 19 282
1989221N16339 1989 76 NA NA NOT_NAMED 1989-08-16 18:00:00 TS 16.5000 -51.1000 30 hurdat_atl main 1234 1205 O_____________ hurdat_atl AL061989 16.5000 -51.1000 TD 30 -1 17 289
1989221N16339 1989 76 NA NA NOT_NAMED 1989-08-16 21:00:00 TS 16.7919 -51.8450 main 1205 1164 P_____________ AL061989 16.7919 -51.8450 TD 30 -1 15 294
1989221N16339 1989 76 NA NA NOT_NAMED 1989-08-17 00:00:00 TS 17.1000 -52.5000 30 hurdat_atl main 1164 1135 O_____________ hurdat_atl AL061989 17.1000 -52.5000 TD 30 -1 14 295
1989221N16339 1989 76 NA NA NOT_NAMED 1989-08-17 03:00:00 TS 17.3872 -53.1575 main 1127 1095 P_____________ AL061989 17.3872 -53.1575 TD 27 -1 13 292
1989221N16339 1989 76 NA NA NOT_NAMED 1989-08-17 06:00:00 TS 17.6000 -53.8000 25 hurdat_atl main 1095 1058 O_____________ hurdat_atl AL061989 17.6000 -53.8000 TD 25 -1 13 284
1989221N16339 1989 76 NA NA NOT_NAMED 1989-08-17 09:00:00 TS 17.6880 -54.4477 main 1058 1009 P_____________ AL061989 17.6880 -54.4477 TD 25 -1 12 275
1989221N16339 1989 76 NA NA NOT_NAMED 1989-08-17 12:00:00 TS 17.7000 -55.1000 25 hurdat_atl main 1009 O_____________ hurdat_atl AL061989 17.7000 -55.1000 TD 25 -1 12 271

IBTrACS Databaseについて

本データベースは、米国NOAAが公開する1842年以降の世界の熱帯低気圧のベストトラックデータアーカイブInternational Best Track Archive for Climate Stewardship (IBTrACS)を、ウェブで閲覧しやすい形式に変換したものです。

最終更新日:2021-10-21